createdAt,value
2023-02-22T00:00:43.849Z,5.40
2023-02-22T00:03:18.178Z,5.35
2023-02-22T00:05:53.664Z,5.28
2023-02-22T00:08:26.297Z,5.17
2023-02-22T00:10:56.712Z,5.08
2023-02-22T00:13:29.388Z,4.99
2023-02-22T00:16:01.039Z,4.90
2023-02-22T00:18:31.912Z,4.79
2023-02-22T00:21:03.255Z,4.68
2023-02-22T00:23:35.156Z,4.61
2023-02-22T00:26:05.735Z,4.54
2023-02-22T00:28:37.006Z,4.48
2023-02-22T00:31:09.694Z,4.46
2023-02-22T00:33:41.900Z,4.48
2023-02-22T00:36:15.611Z,4.47
2023-02-22T00:38:45.946Z,4.42
2023-02-22T00:41:16.827Z,4.39
2023-02-22T00:43:49.279Z,4.32
2023-02-22T00:46:20.131Z,4.25
2023-02-22T00:48:50.482Z,4.20
2023-02-22T00:51:21.901Z,4.19
2023-02-22T00:53:54.513Z,4.15
2023-02-22T00:56:24.989Z,4.07
2023-02-22T00:58:56.511Z,4.01
2023-02-22T01:01:27.944Z,3.99
2023-02-22T01:03:59.225Z,3.90
2023-02-22T01:06:30.232Z,3.80
2023-02-22T01:09:03.236Z,3.73
2023-02-22T01:11:34.154Z,3.65
2023-02-22T01:14:04.869Z,3.62
2023-02-22T01:16:35.546Z,3.58
2023-02-22T01:19:06.968Z,3.55
2023-02-22T01:21:38.076Z,3.54
2023-02-22T01:24:08.861Z,3.53
2023-02-22T01:26:39.311Z,3.52
2023-02-22T01:29:15.202Z,3.46
2023-02-22T01:31:51.837Z,3.43
2023-02-22T01:34:23.231Z,3.43
2023-02-22T01:36:53.584Z,3.38
2023-02-22T01:39:24.020Z,3.33
2023-02-22T01:41:54.667Z,3.31
2023-02-22T01:44:31.241Z,3.30
2023-02-22T01:47:04.240Z,3.31
2023-02-22T01:49:39.707Z,3.33
2023-02-22T01:52:15.381Z,3.33
2023-02-22T01:54:49.432Z,3.33
2023-02-22T01:57:25.581Z,3.32
2023-02-22T01:59:59.971Z,3.26
2023-02-22T02:02:31.018Z,3.21
2023-02-22T02:05:01.549Z,3.16
2023-02-22T02:07:32.067Z,3.13
2023-02-22T02:10:04.316Z,3.12
2023-02-22T02:12:37.230Z,3.07
2023-02-22T02:15:28.985Z,3.03
2023-02-22T02:18:02.029Z,2.97
2023-02-22T02:20:43.117Z,2.96
2023-02-22T02:23:55.134Z,2.95
2023-02-22T02:26:52.889Z,2.94
2023-02-22T02:29:48.472Z,2.94
2023-02-22T02:32:49.757Z,2.92
2023-02-22T02:35:28.336Z,2.93
2023-02-22T02:38:00.264Z,2.97
2023-02-22T02:40:38.334Z,3.00
2023-02-22T02:43:17.168Z,3.05
2023-02-22T02:45:57.694Z,3.07
2023-02-22T02:48:32.666Z,3.09
2023-02-22T02:51:06.496Z,3.09
2023-02-22T02:53:41.185Z,3.12
2023-02-22T02:58:56.345Z,3.18
2023-02-22T03:01:45.053Z,3.20
2023-02-22T03:04:38.494Z,3.23
2023-02-22T03:07:20.298Z,3.28
2023-02-22T03:10:04.817Z,3.32
2023-02-22T03:12:46.529Z,3.35
2023-02-22T03:15:27.543Z,3.38
2023-02-22T03:18:07.870Z,3.38
2023-02-22T03:20:46.462Z,3.41
2023-02-22T03:23:27.033Z,3.44
2023-02-22T03:26:04.703Z,3.48
2023-02-22T03:28:37.397Z,3.51
2023-02-22T03:31:11.918Z,3.52
2023-02-22T03:33:47.346Z,3.54
2023-02-22T03:36:25.023Z,3.55
2023-02-22T03:39:01.025Z,3.58
2023-02-22T03:41:38.735Z,3.62
2023-02-22T03:44:13.788Z,3.64
2023-02-22T03:46:46.941Z,3.68
2023-02-22T03:49:26.209Z,3.71
2023-02-22T03:51:57.286Z,3.74
2023-02-22T03:54:29.063Z,3.76
2023-02-22T03:57:05.726Z,3.78
2023-02-22T03:59:41.268Z,3.82
2023-02-22T04:02:12.064Z,3.85
2023-02-22T04:04:42.517Z,3.89
2023-02-22T04:07:13.505Z,3.92
2023-02-22T04:09:44.894Z,3.95
2023-02-22T04:12:15.587Z,3.96
2023-02-22T04:14:57.541Z,3.95
2023-02-22T04:17:30.284Z,3.93
2023-02-22T04:20:06.814Z,3.93
2023-02-22T04:22:50.035Z,3.93
2023-02-22T04:25:21.110Z,3.91
2023-02-22T04:27:52.075Z,3.92
2023-02-22T04:30:26.505Z,3.93
2023-02-22T04:32:57.647Z,3.93
2023-02-22T04:35:28.841Z,3.94
2023-02-22T04:37:59.200Z,3.93
2023-02-22T04:40:30.960Z,3.93
2023-02-22T04:43:01.309Z,3.91
2023-02-22T04:45:32.454Z,3.93
2023-02-22T04:48:03.222Z,3.95
2023-02-22T04:50:33.778Z,3.98
2023-02-22T04:53:06.663Z,4.00
2023-02-22T04:55:38.152Z,4.02
2023-02-22T04:58:13.811Z,4.04
2023-02-22T05:00:44.159Z,4.07
2023-02-22T05:03:14.578Z,4.09
2023-02-22T05:05:44.879Z,4.09
2023-02-22T05:08:15.198Z,4.10
2023-02-22T05:10:45.684Z,4.13
2023-02-22T05:13:16.467Z,4.14
2023-02-22T05:15:47.930Z,4.16
2023-02-22T05:18:18.876Z,4.17
2023-02-22T05:20:49.282Z,4.16
2023-02-22T05:23:20.319Z,4.16
2023-02-22T05:25:51.464Z,4.16
2023-02-22T05:28:21.888Z,4.18
2023-02-22T05:30:56.049Z,4.19
2023-02-22T05:33:32.288Z,4.21
2023-02-22T05:36:02.792Z,4.21
2023-02-22T05:38:33.187Z,4.21
2023-02-22T05:41:04.391Z,4.25
2023-02-22T05:43:34.783Z,4.27
2023-02-22T05:46:05.315Z,4.29
2023-02-22T05:48:36.617Z,4.31
2023-02-22T05:51:09.704Z,4.30
2023-02-22T05:53:42.464Z,4.31
2023-02-22T05:56:12.877Z,4.31
2023-02-22T05:58:43.213Z,4.32
2023-02-22T06:01:13.924Z,4.34
2023-02-22T06:03:44.315Z,4.34
2023-02-22T06:06:14.656Z,4.35
2023-02-22T06:08:45.227Z,4.37
2023-02-22T06:11:16.311Z,4.37
2023-02-22T06:13:52.525Z,4.38
2023-02-22T06:16:24.754Z,4.38
2023-02-22T06:18:55.104Z,4.35
2023-02-22T06:21:25.495Z,4.32
2023-02-22T06:23:56.148Z,4.33
2023-02-22T06:26:26.498Z,4.35
2023-02-22T06:28:56.896Z,4.39
2023-02-22T06:31:27.260Z,4.42
2023-02-22T06:34:02.479Z,4.46
2023-02-22T06:36:33.279Z,4.50
2023-02-22T06:39:03.691Z,4.55
2023-02-22T06:41:37.816Z,4.61
2023-02-22T06:44:09.176Z,4.68
2023-02-22T06:46:40.134Z,4.76
2023-02-22T06:49:10.966Z,4.83
2023-02-22T06:51:41.400Z,4.90
2023-02-22T06:54:13.055Z,4.97
2023-02-22T06:56:43.509Z,5.04
2023-02-22T06:59:14.061Z,5.10
2023-02-22T07:01:45.102Z,5.16
2023-02-22T07:04:16.001Z,5.21
2023-02-22T07:06:50.180Z,5.27
2023-02-22T07:09:23.800Z,5.33
2023-02-22T07:11:54.202Z,5.38
2023-02-22T07:14:25.110Z,5.45
2023-02-22T07:16:55.371Z,5.51
2023-02-22T07:19:25.690Z,5.56
2023-02-22T07:21:59.250Z,5.64
2023-02-22T07:24:30.132Z,5.71
2023-02-22T07:27:03.991Z,5.77
2023-02-22T07:29:36.137Z,5.81
2023-02-22T07:32:06.771Z,5.84
2023-02-22T07:34:37.332Z,5.89
2023-02-22T07:37:07.704Z,5.93
2023-02-22T07:39:38.539Z,5.98
2023-02-22T07:42:08.896Z,6.06
2023-02-22T07:44:40.821Z,6.11
2023-02-22T07:47:12.988Z,6.15
2023-02-22T07:49:43.292Z,6.17
2023-02-22T07:52:14.421Z,6.22
2023-02-22T07:54:46.660Z,6.30
2023-02-22T07:57:17.843Z,6.37
2023-02-22T07:59:49.366Z,6.41
2023-02-22T08:02:19.824Z,6.45
2023-02-22T08:04:50.142Z,6.49
2023-02-22T08:07:20.800Z,6.53
2023-02-22T08:09:51.220Z,6.55
2023-02-22T08:12:21.622Z,6.61
2023-02-22T08:14:52.446Z,6.69
2023-02-22T08:17:22.742Z,6.81
2023-02-22T08:19:56.322Z,6.90
2023-02-22T08:22:30.074Z,7.00
2023-02-22T08:25:00.434Z,7.12
2023-02-22T08:27:31.825Z,7.24
2023-02-22T08:30:02.274Z,7.33
2023-02-22T08:32:32.785Z,7.38
2023-02-22T08:35:04.977Z,7.44
2023-02-22T08:37:38.091Z,7.49
2023-02-22T08:40:10.532Z,7.55
2023-02-22T08:42:41.434Z,7.56
2023-02-22T08:45:13.549Z,7.60
2023-02-22T08:47:49.450Z,7.69
2023-02-22T08:50:22.825Z,7.78
2023-02-22T08:52:54.117Z,7.88
2023-02-22T08:55:32.107Z,7.94
2023-02-22T08:58:03.882Z,8.01
2023-02-22T09:00:35.267Z,8.09
2023-02-22T09:03:07.280Z,8.18
2023-02-22T09:05:37.870Z,8.22
2023-02-22T09:08:17.053Z,8.19
2023-02-22T09:10:47.913Z,8.19
2023-02-22T09:13:18.424Z,8.20
2023-02-22T09:15:49.227Z,8.20
2023-02-22T09:18:21.158Z,8.18
2023-02-22T09:20:53.309Z,8.16
2023-02-22T09:23:24.236Z,8.14
2023-02-22T09:25:54.673Z,8.19
2023-02-22T09:28:25.033Z,8.29
2023-02-22T09:30:55.727Z,8.38
2023-02-22T09:33:26.646Z,8.42
2023-02-22T09:36:03.398Z,8.50
2023-02-22T09:38:33.767Z,8.46
2023-02-22T09:41:15.062Z,8.41
2023-02-22T09:43:54.320Z,8.45
2023-02-22T09:46:34.982Z,8.49
2023-02-22T09:49:14.072Z,8.48
2023-02-22T09:51:49.719Z,8.51
2023-02-22T09:54:27.633Z,8.54
2023-02-22T09:57:03.349Z,8.54
2023-02-22T09:59:38.806Z,8.58
2023-02-22T10:02:24.619Z,8.69
2023-02-22T10:05:06.238Z,8.80
2023-02-22T10:07:47.175Z,8.95
2023-02-22T10:10:22.258Z,9.07
2023-02-22T10:13:01.077Z,9.20
2023-02-22T10:15:43.336Z,9.26
2023-02-22T10:18:37.391Z,9.32
2023-02-22T10:21:22.071Z,9.40
2023-02-22T10:24:04.483Z,9.47
2023-02-22T10:26:39.106Z,9.54
2023-02-22T10:29:22.061Z,9.61
2023-02-22T10:31:58.032Z,9.64
2023-02-22T10:34:38.550Z,9.65
2023-02-22T10:37:27.844Z,9.66
2023-02-22T10:40:17.569Z,9.71
2023-02-22T10:42:48.840Z,9.73
2023-02-22T10:45:34.282Z,9.73
2023-02-22T10:48:11.756Z,9.65
2023-02-22T10:50:50.505Z,9.64
2023-02-22T10:53:21.126Z,9.56
2023-02-22T10:56:16.246Z,9.49
2023-02-22T10:58:59.701Z,9.50
2023-02-22T11:01:48.616Z,9.56
2023-02-22T11:04:22.660Z,9.60
2023-02-22T11:07:21.847Z,9.60
2023-02-22T11:10:09.931Z,9.68
2023-02-22T11:12:51.131Z,9.74
2023-02-22T11:15:31.715Z,9.78
2023-02-22T11:18:02.162Z,9.79
2023-02-22T11:20:36.072Z,9.80
2023-02-22T11:23:08.664Z,9.81
2023-02-22T11:25:43.798Z,9.80
2023-02-22T11:28:31.001Z,9.83
2023-02-22T11:31:14.499Z,9.86
2023-02-22T11:36:37.885Z,9.96
2023-02-22T11:39:22.222Z,9.97
2023-02-22T11:41:52.924Z,9.88
2023-02-22T11:44:29.970Z,9.88
2023-02-22T11:47:01.558Z,9.88
2023-02-22T11:49:40.622Z,9.81
2023-02-22T11:52:28.389Z,9.75
2023-02-22T11:55:41.815Z,9.78
2023-02-22T11:58:36.669Z,9.75
2023-02-22T12:01:17.251Z,9.71
2023-02-22T12:04:16.940Z,9.77
2023-02-22T12:06:58.437Z,9.95
2023-02-22T12:09:40.810Z,10.15
2023-02-22T12:12:22.228Z,10.32
2023-02-22T12:15:04.025Z,10.46
2023-02-22T12:17:59.465Z,10.48
2023-02-22T12:20:39.863Z,10.43
2023-02-22T12:23:20.041Z,10.42
2023-02-22T12:26:03.000Z,10.47
2023-02-22T12:28:39.232Z,10.62
2023-02-22T12:31:21.311Z,10.67
2023-02-22T12:34:01.066Z,10.70
2023-02-22T12:36:39.296Z,10.70
2023-02-22T12:39:51.874Z,10.62
2023-02-22T12:42:31.092Z,10.63
2023-02-22T12:45:17.016Z,10.69
2023-02-22T12:47:55.872Z,10.76
2023-02-22T12:50:34.493Z,10.71
2023-02-22T12:53:20.538Z,10.70
2023-02-22T12:56:17.450Z,10.80
2023-02-22T12:59:04.382Z,10.96
2023-02-22T13:01:48.697Z,10.92
2023-02-22T13:04:21.468Z,10.92
2023-02-22T13:07:11.852Z,11.03
2023-02-22T13:10:20.393Z,10.96
2023-02-22T13:13:05.765Z,10.84
2023-02-22T13:15:53.487Z,10.70
2023-02-22T13:18:32.898Z,10.67
2023-02-22T13:21:16.966Z,10.75
2023-02-22T13:24:21.335Z,10.82
2023-02-22T13:26:57.255Z,10.90
2023-02-22T13:29:35.631Z,11.04
2023-02-22T13:32:32.486Z,11.03
2023-02-22T13:35:36.320Z,11.09
2023-02-22T13:38:34.930Z,11.08
2023-02-22T13:41:22.486Z,11.15
2023-02-22T13:44:08.249Z,11.13
2023-02-22T13:47:07.967Z,11.10
2023-02-22T13:49:55.925Z,11.06
2023-02-22T13:52:35.266Z,11.04
2023-02-22T13:55:11.400Z,11.10
2023-02-22T13:57:49.899Z,11.17
2023-02-22T14:00:41.367Z,11.24
2023-02-22T14:03:36.270Z,11.44
2023-02-22T14:06:13.693Z,11.54
2023-02-22T14:09:16.891Z,11.54
2023-02-22T14:12:03.689Z,11.45
2023-02-22T14:15:03.403Z,11.37
2023-02-22T14:18:05.245Z,11.42
2023-02-22T14:20:52.573Z,11.42
2023-02-22T14:23:45.604Z,11.40
2023-02-22T14:26:49.481Z,11.32
2023-02-22T14:29:27.093Z,11.24
2023-02-22T14:32:28.444Z,11.20
2023-02-22T14:38:09.212Z,11.02
2023-02-22T14:41:04.316Z,10.81
2023-02-22T14:44:10.318Z,10.58
2023-02-22T14:46:57.677Z,10.44
2023-02-22T14:49:43.685Z,10.37
2023-02-22T14:52:33.936Z,10.35
2023-02-22T14:55:20.934Z,10.36
2023-02-22T14:58:22.253Z,10.38
2023-02-22T15:01:20.598Z,10.31
2023-02-22T15:04:07.014Z,10.22
2023-02-22T15:06:38.739Z,10.10
2023-02-22T15:09:14.474Z,9.95
2023-02-22T15:11:46.312Z,9.84
2023-02-22T15:14:27.787Z,9.82
2023-02-22T15:17:04.320Z,9.84
2023-02-22T15:19:38.198Z,9.77
2023-02-22T15:22:19.088Z,9.66
2023-02-22T15:25:01.180Z,9.63
2023-02-22T15:27:44.076Z,9.55
2023-02-22T15:30:41.512Z,9.50
2023-02-22T15:33:45.872Z,9.42
2023-02-22T15:36:22.877Z,9.30
2023-02-22T15:38:56.907Z,9.21
2023-02-22T15:41:31.952Z,9.11
2023-02-22T15:44:22.692Z,8.99
2023-02-22T15:46:57.039Z,8.87
2023-02-22T15:49:29.294Z,8.79
2023-02-22T15:52:19.800Z,8.69
2023-02-22T15:54:54.596Z,8.62
2023-02-22T15:57:29.896Z,8.54
2023-02-22T16:00:00.639Z,8.49
2023-02-22T16:02:42.304Z,8.44
2023-02-22T16:05:17.658Z,8.37
2023-02-22T16:07:50.901Z,8.30
2023-02-22T16:10:33.492Z,8.23
2023-02-22T16:13:31.423Z,8.19
2023-02-22T16:16:05.027Z,8.14
2023-02-22T16:18:41.348Z,8.09
2023-02-22T16:21:14.021Z,8.04
2023-02-22T16:23:50.267Z,8.00
2023-02-22T16:26:27.082Z,7.96
2023-02-22T16:28:59.640Z,7.90
2023-02-22T16:31:33.879Z,7.84
2023-02-22T16:34:10.386Z,7.84
2023-02-22T16:36:42.992Z,7.82
2023-02-22T16:39:21.130Z,7.79
2023-02-22T16:41:52.979Z,7.76
2023-02-22T16:44:25.111Z,7.74
2023-02-22T16:46:57.119Z,7.72
2023-02-22T16:49:28.115Z,7.71
2023-02-22T16:52:01.917Z,7.66
2023-02-22T16:54:36.559Z,7.63
2023-02-22T16:57:07.520Z,7.60
2023-02-22T16:59:42.272Z,7.57
2023-02-22T17:02:16.729Z,7.54
2023-02-22T17:04:51.070Z,7.50
2023-02-22T17:07:29.851Z,7.47
2023-02-22T17:10:02.066Z,7.44
2023-02-22T17:12:35.061Z,7.40
2023-02-22T17:15:07.909Z,7.38
2023-02-22T17:17:38.521Z,7.36
2023-02-22T17:20:13.683Z,7.32
2023-02-22T17:22:45.598Z,7.29
2023-02-22T17:25:25.578Z,7.26
2023-02-22T17:27:57.144Z,7.25
2023-02-22T17:30:31.435Z,7.21
2023-02-22T17:33:03.660Z,7.19
2023-02-22T17:35:37.160Z,7.17
2023-02-22T17:38:09.663Z,7.14
2023-02-22T17:40:41.480Z,7.11
2023-02-22T17:43:13.387Z,7.10
2023-02-22T17:45:46.132Z,7.07
2023-02-22T17:48:23.566Z,7.05
2023-02-22T17:50:54.943Z,7.03
2023-02-22T17:53:25.701Z,7.02
2023-02-22T17:55:58.260Z,7.01
2023-02-22T17:58:31.027Z,6.99
2023-02-22T18:01:01.899Z,6.96
2023-02-22T18:03:33.276Z,6.94
2023-02-22T18:06:03.929Z,6.91
2023-02-22T18:08:34.761Z,6.89
2023-02-22T18:11:07.593Z,6.87
2023-02-22T18:13:38.117Z,6.84
2023-02-22T18:16:10.204Z,6.82
2023-02-22T18:18:40.752Z,6.79
2023-02-22T18:21:15.554Z,6.77
2023-02-22T18:23:46.713Z,6.74
2023-02-22T18:26:23.190Z,6.72
2023-02-22T18:28:54.789Z,6.69
2023-02-22T18:31:29.764Z,6.66
2023-02-22T18:34:00.427Z,6.63
2023-02-22T18:36:32.426Z,6.62
2023-02-22T18:39:04.027Z,6.60
2023-02-22T18:41:34.538Z,6.58
2023-02-22T18:44:06.442Z,6.55
2023-02-22T18:46:37.080Z,6.52
2023-02-22T18:49:07.470Z,6.47
2023-02-22T18:51:39.906Z,6.43
2023-02-22T18:54:12.125Z,6.38
2023-02-22T18:56:42.554Z,6.31
2023-02-22T18:59:14.685Z,6.26
2023-02-22T19:01:48.925Z,6.22
2023-02-22T19:04:19.826Z,6.16
2023-02-22T19:06:50.277Z,6.09
2023-02-22T19:09:20.650Z,6.03
2023-02-22T19:11:51.259Z,5.98
2023-02-22T19:14:21.600Z,5.92
2023-02-22T19:16:56.518Z,5.86
2023-02-22T19:19:26.976Z,5.78
2023-02-22T19:21:57.459Z,5.70
2023-02-22T19:24:28.779Z,5.61
2023-02-22T19:27:00.022Z,5.53
2023-02-22T19:29:31.321Z,5.47
2023-02-22T19:32:02.923Z,5.41
2023-02-22T19:34:33.524Z,5.34
2023-02-22T19:37:05.137Z,5.28
2023-02-22T19:39:38.364Z,5.23
2023-02-22T19:42:09.840Z,5.18
2023-02-22T19:44:40.643Z,5.11
2023-02-22T19:47:10.940Z,5.07
2023-02-22T19:49:42.015Z,5.02
2023-02-22T19:52:12.419Z,4.97
2023-02-22T19:54:42.942Z,4.92
2023-02-22T19:57:13.368Z,4.89
2023-02-22T19:59:46.369Z,4.88
2023-02-22T20:02:17.955Z,4.87
2023-02-22T20:04:50.109Z,4.87
2023-02-22T20:07:20.453Z,4.86
2023-02-22T20:09:51.243Z,4.85
2023-02-22T20:12:21.644Z,4.86
2023-02-22T20:14:52.549Z,4.84
2023-02-22T20:17:23.330Z,4.85
2023-02-22T20:19:54.477Z,4.85
2023-02-22T20:22:26.035Z,4.82
2023-02-22T20:24:56.424Z,4.80
2023-02-22T20:27:26.702Z,4.79
2023-02-22T20:29:57.058Z,4.78
2023-02-22T20:32:30.653Z,4.76
2023-02-22T20:35:01.440Z,4.75
2023-02-22T20:37:33.374Z,4.72
2023-02-22T20:40:05.302Z,4.70
2023-02-22T20:42:36.778Z,4.70
2023-02-22T20:45:08.639Z,4.68
2023-02-22T20:47:41.469Z,4.68
2023-02-22T20:50:12.964Z,4.65
2023-02-22T20:52:44.945Z,4.64
2023-02-22T20:55:15.360Z,4.62
2023-02-22T20:57:45.745Z,4.59
2023-02-22T21:00:18.182Z,4.56
2023-02-22T21:02:48.593Z,4.54
2023-02-22T21:05:19.942Z,4.51
2023-02-22T21:07:50.510Z,4.49
2023-02-22T21:10:22.260Z,4.47
2023-02-22T21:12:53.953Z,4.45
2023-02-22T21:15:25.988Z,4.44
2023-02-22T21:17:57.301Z,4.43
2023-02-22T21:20:28.186Z,4.39
2023-02-22T21:23:01.933Z,4.36
2023-02-22T21:25:32.675Z,4.31
2023-02-22T21:28:03.505Z,4.27
2023-02-22T21:30:35.230Z,4.24
2023-02-22T21:33:06.753Z,4.22
2023-02-22T21:35:40.348Z,4.20
2023-02-22T21:38:14.419Z,4.18
2023-02-22T21:40:46.492Z,4.16
2023-02-22T21:43:16.837Z,4.16
2023-02-22T21:45:49.693Z,4.15
2023-02-22T21:48:20.434Z,4.14
2023-02-22T21:50:51.062Z,4.11
2023-02-22T21:53:22.724Z,4.08
2023-02-22T21:55:53.885Z,4.05
2023-02-22T21:58:24.198Z,4.01
2023-02-22T22:00:54.618Z,3.99
2023-02-22T22:03:27.388Z,3.95
2023-02-22T22:06:00.574Z,3.92
2023-02-22T22:08:32.693Z,3.89
2023-02-22T22:11:05.571Z,3.86
2023-02-22T22:13:37.518Z,3.81
2023-02-22T22:16:12.185Z,3.74
2023-02-22T22:18:44.685Z,3.68
2023-02-22T22:21:18.358Z,3.59
2023-02-22T22:23:50.497Z,3.51
2023-02-22T22:26:21.756Z,3.46
2023-02-22T22:28:55.900Z,3.41
2023-02-22T22:31:27.952Z,3.35
2023-02-22T22:33:59.547Z,3.31
2023-02-22T22:36:30.055Z,3.26
2023-02-22T22:39:01.126Z,3.21
2023-02-22T22:41:32.540Z,3.18
2023-02-22T22:44:03.273Z,3.13
2023-02-22T22:46:33.611Z,3.10
2023-02-22T22:49:04.836Z,3.06
2023-02-22T22:51:35.952Z,3.02
2023-02-22T22:54:06.880Z,2.99
2023-02-22T22:56:39.334Z,2.95
2023-02-22T22:59:13.227Z,2.89
2023-02-22T23:01:45.321Z,2.86
2023-02-22T23:04:17.430Z,2.83
2023-02-22T23:06:50.647Z,2.78
2023-02-22T23:09:23.540Z,2.74
2023-02-22T23:11:56.230Z,2.72
2023-02-22T23:14:31.191Z,2.68
2023-02-22T23:17:03.534Z,2.64
2023-02-22T23:19:35.813Z,2.61
2023-02-22T23:22:07.419Z,2.59
2023-02-22T23:24:40.769Z,2.57
2023-02-22T23:27:12.381Z,2.52
2023-02-22T23:29:46.600Z,2.49
2023-02-22T23:32:18.043Z,2.48
2023-02-22T23:34:49.758Z,2.45
2023-02-22T23:37:22.873Z,2.43
2023-02-22T23:39:53.175Z,2.41
2023-02-22T23:42:23.566Z,2.36
2023-02-22T23:44:54.053Z,2.33
2023-02-22T23:47:24.865Z,2.30
2023-02-22T23:49:58.376Z,2.28
2023-02-22T23:52:29.977Z,2.27
2023-02-22T23:55:02.043Z,2.25
2023-02-22T23:57:32.943Z,2.23
